sensor_id;sensor_type;location;lat;lon;timestamp;temperature;humidity
19174;DHT22;9719;49.322;8.536;2022-07-22T00:03:50;22.50;67.70
19174;DHT22;9719;49.322;8.536;2022-07-22T00:08:54;22.40;67.90
19174;DHT22;9719;49.322;8.536;2022-07-22T00:13:56;22.30;68.10
19174;DHT22;9719;49.322;8.536;2022-07-22T00:18:58;22.30;68.30
19174;DHT22;9719;49.322;8.536;2022-07-22T00:24:01;22.20;68.30
19174;DHT22;9719;49.322;8.536;2022-07-22T00:29:03;22.10;68.50
19174;DHT22;9719;49.322;8.536;2022-07-22T00:34:05;22.10;68.60
19174;DHT22;9719;49.322;8.536;2022-07-22T00:39:08;22.00;68.80
19174;DHT22;9719;49.322;8.536;2022-07-22T00:44:10;21.90;69.00
19174;DHT22;9719;49.322;8.536;2022-07-22T00:49:12;21.80;69.00
19174;DHT22;9719;49.322;8.536;2022-07-22T00:54:15;21.80;69.20
19174;DHT22;9719;49.322;8.536;2022-07-22T00:59:17;21.70;69.40
19174;DHT22;9719;49.322;8.536;2022-07-22T01:04:20;21.70;69.30
19174;DHT22;9719;49.322;8.536;2022-07-22T01:09:23;21.60;69.30
19174;DHT22;9719;49.322;8.536;2022-07-22T01:14:25;21.60;69.50
19174;DHT22;9719;49.322;8.536;2022-07-22T01:19:27;21.40;69.70
19174;DHT22;9719;49.322;8.536;2022-07-22T01:24:30;21.40;70.00
19174;DHT22;9719;49.322;8.536;2022-07-22T01:29:33;21.30;70.20
19174;DHT22;9719;49.322;8.536;2022-07-22T01:34:35;21.30;70.30
19174;DHT22;9719;49.322;8.536;2022-07-22T01:39:38;21.20;70.30
19174;DHT22;9719;49.322;8.536;2022-07-22T01:44:40;21.20;70.50
19174;DHT22;9719;49.322;8.536;2022-07-22T01:49:42;21.10;70.60
19174;DHT22;9719;49.322;8.536;2022-07-22T01:54:46;21.10;70.80
19174;DHT22;9719;49.322;8.536;2022-07-22T01:59:48;21.00;70.90
19174;DHT22;9719;49.322;8.536;2022-07-22T02:04:50;21.00;70.90
19174;DHT22;9719;49.322;8.536;2022-07-22T02:09:53;20.90;71.10
19174;DHT22;9719;49.322;8.536;2022-07-22T02:14:55;20.90;71.10
19174;DHT22;9719;49.322;8.536;2022-07-22T02:19:57;20.80;71.10
19174;DHT22;9719;49.322;8.536;2022-07-22T06:00:27;21.50;72.40
19174;DHT22;9719;49.322;8.536;2022-07-22T06:05:29;21.50;72.10
19174;DHT22;9719;49.322;8.536;2022-07-22T06:10:32;21.60;71.80
19174;DHT22;9719;49.322;8.536;2022-07-22T06:15:35;21.80;71.30
19174;DHT22;9719;49.322;8.536;2022-07-22T06:20:37;22.10;70.90
19174;DHT22;9719;49.322;8.536;2022-07-22T06:25:39;22.40;70.30
19174;DHT22;9719;49.322;8.536;2022-07-22T06:30:43;22.60;70.10
19174;DHT22;9719;49.322;8.536;2022-07-22T06:35:45;22.60;69.70
19174;DHT22;9719;49.322;8.536;2022-07-22T06:40:46;22.60;69.60
19174;DHT22;9719;49.322;8.536;2022-07-22T06:45:50;22.80;69.40
19174;DHT22;9719;49.322;8.536;2022-07-22T06:50:52;23.10;68.60
19174;DHT22;9719;49.322;8.536;2022-07-22T06:55:54;23.40;68.30
19174;DHT22;9719;49.322;8.536;2022-07-22T07:00:57;23.60;68.00
19174;DHT22;9719;49.322;8.536;2022-07-22T07:05:59;23.70;67.10
19174;DHT22;9719;49.322;8.536;2022-07-22T07:11:01;23.70;66.60
19174;DHT22;9719;49.322;8.536;2022-07-22T07:16:05;23.80;66.10
19174;DHT22;9719;49.322;8.536;2022-07-22T07:21:07;23.70;66.00
19174;DHT22;9719;49.322;8.536;2022-07-22T07:26:09;23.80;65.80
19174;DHT22;9719;49.322;8.536;2022-07-22T07:31:13;23.90;65.30
19174;DHT22;9719;49.322;8.536;2022-07-22T07:36:15;24.00;64.90
19174;DHT22;9719;49.322;8.536;2022-07-22T07:41:17;24.10;64.60
19174;DHT22;9719;49.322;8.536;2022-07-22T07:46:20;24.20;64.10
19174;DHT22;9719;49.322;8.536;2022-07-22T07:51:22;24.30;64.10
19174;DHT22;9719;49.322;8.536;2022-07-22T07:56:24;24.50;63.70
19174;DHT22;9719;49.322;8.536;2022-07-22T08:01:28;24.50;63.20
19174;DHT22;9719;49.322;8.536;2022-07-22T08:06:30;24.60;62.80
19174;DHT22;9719;49.322;8.536;2022-07-22T08:11:31;24.60;63.00
19174;DHT22;9719;49.322;8.536;2022-07-22T08:16:35;24.70;62.20
19174;DHT22;9719;49.322;8.536;2022-07-22T08:21:37;24.80;62.10
19174;DHT22;9719;49.322;8.536;2022-07-22T08:26:39;24.30;63.10
19174;DHT22;9719;49.322;8.536;2022-07-22T08:31:42;23.50;64.80
19174;DHT22;9719;49.322;8.536;2022-07-22T08:36:44;23.10;66.50
19174;DHT22;9719;49.322;8.536;2022-07-22T08:41:46;23.10;67.40
19174;DHT22;9719;49.322;8.536;2022-07-22T08:46:49;23.40;66.70
19174;DHT22;9719;49.322;8.536;2022-07-22T08:51:51;23.90;65.80
19174;DHT22;9719;49.322;8.536;2022-07-22T08:56:53;24.40;64.70
19174;DHT22;9719;49.322;8.536;2022-07-22T09:02:04;24.80;64.30
19174;DHT22;9719;49.322;8.536;2022-07-22T09:07:07;25.20;63.20
19174;DHT22;9719;49.322;8.536;2022-07-22T09:12:09;25.50;62.30
19174;DHT22;9719;49.322;8.536;2022-07-22T09:17:24;25.80;61.40
19174;DHT22;9719;49.322;8.536;2022-07-22T09:22:34;26.20;60.80
19174;DHT22;9719;49.322;8.536;2022-07-22T09:27:37;26.50;60.20
19174;DHT22;9719;49.322;8.536;2022-07-22T09:32:42;27.10;59.40
19174;DHT22;9719;49.322;8.536;2022-07-22T09:37:49;27.80;57.60
19174;DHT22;9719;49.322;8.536;2022-07-22T09:42:54;28.40;57.30
19174;DHT22;9719;49.322;8.536;2022-07-22T09:47:59;29.50;55.20
19174;DHT22;9719;49.322;8.536;2022-07-22T09:53:02;31.40;53.00
19174;DHT22;9719;49.322;8.536;2022-07-22T09:58:04;33.40;50.40
19174;DHT22;9719;49.322;8.536;2022-07-22T10:03:12;34.90;47.40
19174;DHT22;9719;49.322;8.536;2022-07-22T10:08:15;36.00;44.50
19174;DHT22;9719;49.322;8.536;2022-07-22T10:13:17;37.00;42.70
19174;DHT22;9719;49.322;8.536;2022-07-22T10:18:21;37.80;40.00
19174;DHT22;9719;49.322;8.536;2022-07-22T10:23:25;38.30;37.70
19174;DHT22;9719;49.322;8.536;2022-07-22T10:28:29;38.00;37.70
19174;DHT22;9719;49.322;8.536;2022-07-22T10:33:34;37.50;36.70
19174;DHT22;9719;49.322;8.536;2022-07-22T10:38:38;36.90;36.40
19174;DHT22;9719;49.322;8.536;2022-07-22T10:43:46;36.40;36.30
19174;DHT22;9719;49.322;8.536;2022-07-22T10:48:51;35.90;36.70
19174;DHT22;9719;49.322;8.536;2022-07-22T10:53:54;35.60;36.60
19174;DHT22;9719;49.322;8.536;2022-07-22T10:59:10;35.50;36.20
19174;DHT22;9719;49.322;8.536;2022-07-22T11:04:18;35.30;36.90
19174;DHT22;9719;49.322;8.536;2022-07-22T11:09:21;34.90;36.50
19174;DHT22;9719;49.322;8.536;2022-07-22T11:14:26;34.70;37.20
19174;DHT22;9719;49.322;8.536;2022-07-22T11:19:31;34.60;37.20
19174;DHT22;9719;49.322;8.536;2022-07-22T11:24:34;34.40;37.00
19174;DHT22;9719;49.322;8.536;2022-07-22T11:29:38;34.20;37.60
19174;DHT22;9719;49.322;8.536;2022-07-22T11:34:45;34.10;38.10
19174;DHT22;9719;49.322;8.536;2022-07-22T11:39:47;34.10;37.80
19174;DHT22;9719;49.322;8.536;2022-07-22T11:44:49;34.00;37.50
19174;DHT22;9719;49.322;8.536;2022-07-22T11:49:56;33.90;37.70
19174;DHT22;9719;49.322;8.536;2022-07-22T11:55:01;33.90;37.60
19174;DHT22;9719;49.322;8.536;2022-07-22T12:00:49;33.90;37.80
19174;DHT22;9719;49.322;8.536;2022-07-22T12:12:11;33.90;38.00
19174;DHT22;9719;49.322;8.536;2022-07-22T12:17:16;34.00;37.90
19174;DHT22;9719;49.322;8.536;2022-07-22T12:22:40;33.90;37.10
19174;DHT22;9719;49.322;8.536;2022-07-22T12:28:20;33.80;37.50
19174;DHT22;9719;49.322;8.536;2022-07-22T12:39:24;33.50;37.20
19174;DHT22;9719;49.322;8.536;2022-07-22T12:44:52;33.50;37.50
19174;DHT22;9719;49.322;8.536;2022-07-22T12:50:33;33.60;37.00
19174;DHT22;9719;49.322;8.536;2022-07-22T12:55:53;33.70;37.50
19174;DHT22;9719;49.322;8.536;2022-07-22T13:01:00;33.80;36.50
19174;DHT22;9719;49.322;8.536;2022-07-22T13:06:04;33.70;36.40
19174;DHT22;9719;49.322;8.536;2022-07-22T13:11:08;33.60;36.60
19174;DHT22;9719;49.322;8.536;2022-07-22T13:16:11;34.30;37.30
19174;DHT22;9719;49.322;8.536;2022-07-22T13:21:14;33.70;36.80
19174;DHT22;9719;49.322;8.536;2022-07-22T13:26:32;34.00;37.10
19174;DHT22;9719;49.322;8.536;2022-07-22T13:32:21;34.00;36.80
19174;DHT22;9719;49.322;8.536;2022-07-22T13:37:56;34.00;36.80
19174;DHT22;9719;49.322;8.536;2022-07-22T13:43:24;34.00;36.70
19174;DHT22;9719;49.322;8.536;2022-07-22T13:49:04;34.00;36.00
19174;DHT22;9719;49.322;8.536;2022-07-22T13:54:06;33.90;35.80
19174;DHT22;9719;49.322;8.536;2022-07-22T13:59:08;33.90;35.60
19174;DHT22;9719;49.322;8.536;2022-07-22T14:04:12;34.20;35.70
19174;DHT22;9719;49.322;8.536;2022-07-22T14:09:14;34.00;35.80
19174;DHT22;9719;49.322;8.536;2022-07-22T14:14:16;34.00;35.60
19174;DHT22;9719;49.322;8.536;2022-07-22T14:19:26;34.00;35.50
19174;DHT22;9719;49.322;8.536;2022-07-22T14:24:28;34.20;35.40
19174;DHT22;9719;49.322;8.536;2022-07-22T14:29:31;34.00;35.40
19174;DHT22;9719;49.322;8.536;2022-07-22T14:34:34;34.00;35.40
19174;DHT22;9719;49.322;8.536;2022-07-22T14:39:37;34.00;35.00
19174;DHT22;9719;49.322;8.536;2022-07-22T14:44:39;34.10;35.30
19174;DHT22;9719;49.322;8.536;2022-07-22T14:49:42;34.00;35.20
19174;DHT22;9719;49.322;8.536;2022-07-22T14:54:45;33.90;34.80
19174;DHT22;9719;49.322;8.536;2022-07-22T14:59:47;33.90;34.70
19174;DHT22;9719;49.322;8.536;2022-07-22T15:04:50;33.90;34.70
19174;DHT22;9719;49.322;8.536;2022-07-22T15:10:01;33.90;34.90
19174;DHT22;9719;49.322;8.536;2022-07-22T15:15:07;33.90;35.20
19174;DHT22;9719;49.322;8.536;2022-07-22T15:20:11;33.80;34.70
19174;DHT22;9719;49.322;8.536;2022-07-22T15:25:13;33.80;34.60
19174;DHT22;9719;49.322;8.536;2022-07-22T15:30:15;33.80;34.80
19174;DHT22;9719;49.322;8.536;2022-07-22T15:35:19;33.70;34.80
19174;DHT22;9719;49.322;8.536;2022-07-22T15:40:21;33.70;34.70
19174;DHT22;9719;49.322;8.536;2022-07-22T15:45:25;33.60;35.30
19174;DHT22;9719;49.322;8.536;2022-07-22T15:50:28;33.60;34.60
19174;DHT22;9719;49.322;8.536;2022-07-22T15:55:33;33.60;35.00
19174;DHT22;9719;49.322;8.536;2022-07-22T16:00:36;33.60;34.70
19174;DHT22;9719;49.322;8.536;2022-07-22T16:05:41;33.40;34.80
19174;DHT22;9719;49.322;8.536;2022-07-22T16:10:43;33.50;35.30
19174;DHT22;9719;49.322;8.536;2022-07-22T16:15:45;33.50;35.30
19174;DHT22;9719;49.322;8.536;2022-07-22T16:20:49;33.60;34.90
19174;DHT22;9719;49.322;8.536;2022-07-22T16:25:51;33.60;35.00
19174;DHT22;9719;49.322;8.536;2022-07-22T16:30:53;33.60;34.70
19174;DHT22;9719;49.322;8.536;2022-07-22T16:35:57;33.50;34.90
19174;DHT22;9719;49.322;8.536;2022-07-22T16:41:00;33.40;34.90
19174;DHT22;9719;49.322;8.536;2022-07-22T16:46:03;33.30;35.50
19174;DHT22;9719;49.322;8.536;2022-07-22T16:51:07;33.20;35.30
19174;DHT22;9719;49.322;8.536;2022-07-22T16:56:09;33.10;35.70
19174;DHT22;9719;49.322;8.536;2022-07-22T17:01:11;33.10;35.80
19174;DHT22;9719;49.322;8.536;2022-07-22T17:06:14;33.10;35.90
19174;DHT22;9719;49.322;8.536;2022-07-22T17:11:17;33.10;35.90
19174;DHT22;9719;49.322;8.536;2022-07-22T17:16:19;33.00;36.10
19174;DHT22;9719;49.322;8.536;2022-07-22T17:21:22;32.90;35.90
19174;DHT22;9719;49.322;8.536;2022-07-22T17:26:24;32.80;36.30
19174;DHT22;9719;49.322;8.536;2022-07-22T17:31:27;32.70;36.10
19174;DHT22;9719;49.322;8.536;2022-07-22T17:41:39;32.30;36.90
19174;DHT22;9719;49.322;8.536;2022-07-22T17:46:41;32.00;37.30
19174;DHT22;9719;49.322;8.536;2022-07-22T17:51:43;32.00;37.30
19174;DHT22;9719;49.322;8.536;2022-07-22T17:56:47;31.40;39.30
19174;DHT22;9719;49.322;8.536;2022-07-22T18:01:50;30.90;39.60
19174;DHT22;9719;49.322;8.536;2022-07-22T18:06:52;30.50;40.10
19174;DHT22;9719;49.322;8.536;2022-07-22T18:11:58;30.40;40.10
19174;DHT22;9719;49.322;8.536;2022-07-22T18:17:00;30.30;40.80
19174;DHT22;9719;49.322;8.536;2022-07-22T18:22:02;30.20;41.60
19174;DHT22;9719;49.322;8.536;2022-07-22T18:27:06;30.10;41.60
19174;DHT22;9719;49.322;8.536;2022-07-22T18:32:08;29.80;42.10
19174;DHT22;9719;49.322;8.536;2022-07-22T18:37:10;29.60;43.60
19174;DHT22;9719;49.322;8.536;2022-07-22T18:42:13;29.50;45.30
19174;DHT22;9719;49.322;8.536;2022-07-22T18:47:15;29.30;45.40
19174;DHT22;9719;49.322;8.536;2022-07-22T18:52:17;29.10;45.60
19174;DHT22;9719;49.322;8.536;2022-07-22T18:57:20;28.80;45.70
19174;DHT22;9719;49.322;8.536;2022-07-22T19:02:22;28.70;47.10
19174;DHT22;9719;49.322;8.536;2022-07-22T19:07:28;28.50;47.60
19174;DHT22;9719;49.322;8.536;2022-07-22T19:12:31;28.40;47.30
19174;DHT22;9719;49.322;8.536;2022-07-22T19:17:36;28.20;47.80
19174;DHT22;9719;49.322;8.536;2022-07-22T19:22:38;28.10;48.70
19174;DHT22;9719;49.322;8.536;2022-07-22T19:27:42;28.00;48.60
19174;DHT22;9719;49.322;8.536;2022-07-22T19:32:44;27.90;49.70
19174;DHT22;9719;49.322;8.536;2022-07-22T19:37:46;27.90;49.10
19174;DHT22;9719;49.322;8.536;2022-07-22T19:42:49;27.90;50.10
19174;DHT22;9719;49.322;8.536;2022-07-22T19:47:51;27.90;50.00
19174;DHT22;9719;49.322;8.536;2022-07-22T19:52:53;27.80;50.30
19174;DHT22;9719;49.322;8.536;2022-07-22T19:57:59;27.70;50.70
19174;DHT22;9719;49.322;8.536;2022-07-22T20:03:01;27.70;50.50
19174;DHT22;9719;49.322;8.536;2022-07-22T20:08:03;27.80;51.10
19174;DHT22;9719;49.322;8.536;2022-07-22T20:13:07;27.80;51.20
19174;DHT22;9719;49.322;8.536;2022-07-22T20:18:09;27.90;51.70
19174;DHT22;9719;49.322;8.536;2022-07-22T20:23:11;27.80;51.10
19174;DHT22;9719;49.322;8.536;2022-07-22T20:28:14;27.80;51.40
19174;DHT22;9719;49.322;8.536;2022-07-22T20:33:16;27.80;50.70
19174;DHT22;9719;49.322;8.536;2022-07-22T20:38:18;27.90;51.00
19174;DHT22;9719;49.322;8.536;2022-07-22T20:43:29;27.90;50.90
19174;DHT22;9719;49.322;8.536;2022-07-22T20:48:38;28.00;51.90
19174;DHT22;9719;49.322;8.536;2022-07-22T20:53:41;28.00;51.70
19174;DHT22;9719;49.322;8.536;2022-07-22T20:58:45;28.00;51.20
19174;DHT22;9719;49.322;8.536;2022-07-22T21:03:51;27.90;51.00
19174;DHT22;9719;49.322;8.536;2022-07-22T21:08:54;27.90;51.00
19174;DHT22;9719;49.322;8.536;2022-07-22T21:13:57;27.90;51.50
19174;DHT22;9719;49.322;8.536;2022-07-22T21:18:59;28.00;52.20
19174;DHT22;9719;49.322;8.536;2022-07-22T21:24:01;27.80;51.40
19174;DHT22;9719;49.322;8.536;2022-07-22T21:29:05;27.80;51.40
19174;DHT22;9719;49.322;8.536;2022-07-22T21:34:07;27.80;51.30
19174;DHT22;9719;49.322;8.536;2022-07-22T21:39:09;27.80;51.70
19174;DHT22;9719;49.322;8.536;2022-07-22T21:44:12;27.80;51.60
19174;DHT22;9719;49.322;8.536;2022-07-22T21:49:24;27.70;52.40
19174;DHT22;9719;49.322;8.536;2022-07-22T21:54:33;27.70;52.40
19174;DHT22;9719;49.322;8.536;2022-07-22T21:59:37;27.50;52.40
19174;DHT22;9719;49.322;8.536;2022-07-22T22:04:39;27.40;52.50
19174;DHT22;9719;49.322;8.536;2022-07-22T22:09:41;27.30;52.80
19174;DHT22;9719;49.322;8.536;2022-07-22T22:14:44;26.50;52.60
19174;DHT22;9719;49.322;8.536;2022-07-22T22:19:46;26.90;53.10
19174;DHT22;9719;49.322;8.536;2022-07-22T22:24:48;26.80;53.20
19174;DHT22;9719;49.322;8.536;2022-07-22T22:29:51;26.70;54.00
19174;DHT22;9719;49.322;8.536;2022-07-22T22:34:53;26.50;54.10
19174;DHT22;9719;49.322;8.536;2022-07-22T22:39:55;26.40;54.30
19174;DHT22;9719;49.322;8.536;2022-07-22T22:44:58;26.30;54.90
19174;DHT22;9719;49.322;8.536;2022-07-22T22:50:01;26.20;55.20
19174;DHT22;9719;49.322;8.536;2022-07-22T22:55:04;26.10;55.60
19174;DHT22;9719;49.322;8.536;2022-07-22T23:00:08;26.00;55.90
19174;DHT22;9719;49.322;8.536;2022-07-22T23:05:10;25.90;55.80
19174;DHT22;9719;49.322;8.536;2022-07-22T23:10:12;25.90;56.20
19174;DHT22;9719;49.322;8.536;2022-07-22T23:15:16;25.70;56.80
19174;DHT22;9719;49.322;8.536;2022-07-22T23:20:18;25.60;57.10
19174;DHT22;9719;49.322;8.536;2022-07-22T23:25:20;25.50;57.20
19174;DHT22;9719;49.322;8.536;2022-07-22T23:30:24;25.50;57.50
19174;DHT22;9719;49.322;8.536;2022-07-22T23:35:26;25.40;57.80
19174;DHT22;9719;49.322;8.536;2022-07-22T23:40:28;25.40;57.90
19174;DHT22;9719;49.322;8.536;2022-07-22T23:45:31;25.40;58.10
19174;DHT22;9719;49.322;8.536;2022-07-22T23:50:33;25.30;58.20
19174;DHT22;9719;49.322;8.536;2022-07-22T23:55:36;25.30;58.30
